Basse Lasne, Belgium
Current Conditions -  °F | °C
As of 4:25 PM on Friday 24 Oct 2014 (Local Time) from EBBE Reporting Station
Broken Clouds Broken Clouds  
Wind Chill: 54°   Ceiling: 6000
Heat Index: 54°   Visibility: 6mi
Dew Point: 48°   Wind: 13mph
Humidity: 82%   Direction: 200°SSW
Pressure: 30.06"   Gusts: NA
Location:  50.7°N, 4.49°E
Report Text: EBBE 241425Z 20011KT 9999 SCT020 BKN060 12/09 Q1018 WHT WHT
Loading
Personal Weather Stations






























Interactive Weather Map
Tropical Storm Tracking
New forecast layout! Learn more

10-Day Weather Forecast

Advertisements
Track Severe Weather on mobile